sensor_id;sensor_type;location;lat;lon;timestamp;pressure;altitude;pressure_sealevel;temperature;humidity
32033;BME280;31720;52.638;9.216;2023-11-19T00:00:27;100540.75;;;6.44;100.00
32033;BME280;31720;52.638;9.216;2023-11-19T00:03:28;100539.88;;;6.45;100.00
32033;BME280;31720;52.638;9.216;2023-11-19T00:06:29;100546.78;;;6.46;100.00
32033;BME280;31720;52.638;9.216;2023-11-19T00:09:32;100543.16;;;6.50;100.00
32033;BME280;31720;52.638;9.216;2023-11-19T00:12:34;100523.97;;;6.51;100.00
32033;BME280;31720;52.638;9.216;2023-11-19T00:15:35;100512.59;;;6.52;100.00
32033;BME280;31720;52.638;9.216;2023-11-19T00:18:36;100515.22;;;6.52;100.00
32033;BME280;31720;52.638;9.216;2023-11-19T00:21:38;100504.66;;;6.55;100.00
32033;BME280;31720;52.638;9.216;2023-11-19T00:24:42;100498.50;;;6.56;100.00
32033;BME280;31720;52.638;9.216;2023-11-19T00:27:45;100500.09;;;6.60;100.00
32033;BME280;31720;52.638;9.216;2023-11-19T00:30:46;100495.59;;;6.64;100.00
32033;BME280;31720;52.638;9.216;2023-11-19T00:33:47;100482.53;;;6.64;100.00
32033;BME280;31720;52.638;9.216;2023-11-19T00:36:49;100474.63;;;6.66;100.00
32033;BME280;31720;52.638;9.216;2023-11-19T00:39:51;100468.31;;;6.71;100.00
32033;BME280;31720;52.638;9.216;2023-11-19T00:42:53;100461.19;;;6.75;100.00
32033;BME280;31720;52.638;9.216;2023-11-19T00:45:54;100460.16;;;6.79;100.00
32033;BME280;31720;52.638;9.216;2023-11-19T00:48:56;100459.19;;;6.81;100.00
32033;BME280;31720;52.638;9.216;2023-11-19T00:51:59;100453.69;;;6.88;100.00
32033;BME280;31720;52.638;9.216;2023-11-19T00:55:04;100451.66;;;6.94;100.00
32033;BME280;31720;52.638;9.216;2023-11-19T00:58:06;100447.81;;;7.03;100.00
32033;BME280;31720;52.638;9.216;2023-11-19T01:01:07;100425.72;;;7.10;100.00
32033;BME280;31720;52.638;9.216;2023-11-19T01:04:08;100418.53;;;7.15;100.00
32033;BME280;31720;52.638;9.216;2023-11-19T01:07:10;100414.78;;;7.21;100.00
32033;BME280;31720;52.638;9.216;2023-11-19T01:10:14;100407.38;;;7.30;100.00
32033;BME280;31720;52.638;9.216;2023-11-19T01:13:16;100396.38;;;7.43;100.00
32033;BME280;31720;52.638;9.216;2023-11-19T01:16:18;100412.78;;;7.46;100.00
32033;BME280;31720;52.638;9.216;2023-11-19T01:19:20;100411.84;;;7.47;100.00
32033;BME280;31720;52.638;9.216;2023-11-19T01:22:22;100400.88;;;7.58;100.00
32033;BME280;31720;52.638;9.216;2023-11-19T01:25:25;100397.19;;;7.62;100.00
32033;BME280;31720;52.638;9.216;2023-11-19T01:28:27;100389.22;;;7.65;100.00
32033;BME280;31720;52.638;9.216;2023-11-19T01:31:28;100386.31;;;7.71;100.00
32033;BME280;31720;52.638;9.216;2023-11-19T01:34:29;100384.28;;;7.78;100.00
32033;BME280;31720;52.638;9.216;2023-11-19T01:37:31;100388.50;;;7.80;100.00
32033;BME280;31720;52.638;9.216;2023-11-19T01:40:33;100371.72;;;7.84;100.00
32033;BME280;31720;52.638;9.216;2023-11-19T01:43:37;100364.22;;;7.96;100.00
32033;BME280;31720;52.638;9.216;2023-11-19T01:46:40;100361.00;;;8.08;100.00
32033;BME280;31720;52.638;9.216;2023-11-19T01:49:42;100360.00;;;8.10;100.00
32033;BME280;31720;52.638;9.216;2023-11-19T01:52:43;100362.03;;;8.23;100.00
32033;BME280;31720;52.638;9.216;2023-11-19T01:55:46;100352.06;;;8.29;100.00
32033;BME280;31720;52.638;9.216;2023-11-19T01:58:49;100355.63;;;8.28;100.00
32033;BME280;31720;52.638;9.216;2023-11-19T02:01:51;100346.00;;;8.29;100.00
32033;BME280;31720;52.638;9.216;2023-11-19T02:04:53;100333.59;;;8.32;100.00
32033;BME280;31720;52.638;9.216;2023-11-19T02:07:54;100337.47;;;8.43;100.00
32033;BME280;31720;52.638;9.216;2023-11-19T02:10:57;100344.41;;;8.44;100.00
32033;BME280;31720;52.638;9.216;2023-11-19T02:13:58;100342.34;;;8.50;100.00
32033;BME280;31720;52.638;9.216;2023-11-19T02:17:00;100327.38;;;8.52;100.00
32033;BME280;31720;52.638;9.216;2023-11-19T02:20:02;100323.53;;;8.59;100.00
32033;BME280;31720;52.638;9.216;2023-11-19T02:23:04;100311.19;;;8.61;100.00
32033;BME280;31720;52.638;9.216;2023-11-19T02:26:13;100293.28;;;8.70;100.00
32033;BME280;31720;52.638;9.216;2023-11-19T02:29:17;100289.44;;;8.77;100.00
32033;BME280;31720;52.638;9.216;2023-11-19T02:32:19;100289.84;;;8.85;100.00
32033;BME280;31720;52.638;9.216;2023-11-19T02:35:20;100290.09;;;8.80;100.00
32033;BME280;31720;52.638;9.216;2023-11-19T02:38:22;100276.94;;;8.82;100.00
32033;BME280;31720;52.638;9.216;2023-11-19T02:41:24;100269.22;;;8.79;100.00
32033;BME280;31720;52.638;9.216;2023-11-19T02:44:27;100260.44;;;8.80;100.00
32033;BME280;31720;52.638;9.216;2023-11-19T02:47:30;100265.44;;;8.84;100.00
32033;BME280;31720;52.638;9.216;2023-11-19T02:50:32;100262.13;;;8.81;100.00
32033;BME280;31720;52.638;9.216;2023-11-19T02:53:33;100265.38;;;8.86;100.00
32033;BME280;31720;52.638;9.216;2023-11-19T02:56:35;100255.72;;;8.86;100.00
32033;BME280;31720;52.638;9.216;2023-11-19T02:59:39;100255.22;;;8.96;100.00
32033;BME280;31720;52.638;9.216;2023-11-19T03:02:43;100251.56;;;8.98;100.00
32033;BME280;31720;52.638;9.216;2023-11-19T03:05:46;100253.63;;;9.09;100.00
32033;BME280;31720;52.638;9.216;2023-11-19T03:08:48;100255.75;;;9.18;100.00
32033;BME280;31720;52.638;9.216;2023-11-19T03:11:49;100252.78;;;9.24;100.00
32033;BME280;31720;52.638;9.216;2023-11-19T03:14:52;100244.16;;;9.22;100.00
32033;BME280;31720;52.638;9.216;2023-11-19T03:17:53;100242.38;;;9.23;100.00
32033;BME280;31720;52.638;9.216;2023-11-19T03:20:55;100237.72;;;9.28;100.00
32033;BME280;31720;52.638;9.216;2023-11-19T03:23:57;100236.88;;;9.27;100.00
32033;BME280;31720;52.638;9.216;2023-11-19T03:27:00;100239.31;;;9.30;100.00
32033;BME280;31720;52.638;9.216;2023-11-19T03:30:03;100230.91;;;9.39;100.00
32033;BME280;31720;52.638;9.216;2023-11-19T03:33:05;100232.19;;;9.48;100.00
32033;BME280;31720;52.638;9.216;2023-11-19T03:36:07;100227.44;;;9.39;100.00
32033;BME280;31720;52.638;9.216;2023-11-19T03:39:10;100239.63;;;9.40;100.00
32033;BME280;31720;52.638;9.216;2023-11-19T03:42:11;100242.25;;;9.56;100.00
32033;BME280;31720;52.638;9.216;2023-11-19T03:45:14;100229.13;;;9.56;100.00
32033;BME280;31720;52.638;9.216;2023-11-19T03:48:17;100234.47;;;9.54;100.00
32033;BME280;31720;52.638;9.216;2023-11-19T03:51:19;100222.97;;;9.71;100.00
32033;BME280;31720;52.638;9.216;2023-11-19T03:54:20;100226.94;;;9.78;100.00
32033;BME280;31720;52.638;9.216;2023-11-19T03:57:23;100229.94;;;9.72;100.00
32033;BME280;31720;52.638;9.216;2023-11-19T04:00:26;100222.25;;;9.69;100.00
32033;BME280;31720;52.638;9.216;2023-11-19T04:03:28;100225.25;;;9.77;100.00
32033;BME280;31720;52.638;9.216;2023-11-19T04:06:29;100203.91;;;9.83;100.00
32033;BME280;31720;52.638;9.216;2023-11-19T04:09:31;100223.13;;;9.84;100.00
32033;BME280;31720;52.638;9.216;2023-11-19T04:12:33;100226.28;;;9.75;100.00
32033;BME280;31720;52.638;9.216;2023-11-19T04:15:35;100230.50;;;9.77;100.00
32033;BME280;31720;52.638;9.216;2023-11-19T04:18:37;100226.19;;;9.76;100.00
32033;BME280;31720;52.638;9.216;2023-11-19T04:21:40;100216.19;;;9.83;100.00
32033;BME280;31720;52.638;9.216;2023-11-19T04:24:41;100220.59;;;9.82;100.00
32033;BME280;31720;52.638;9.216;2023-11-19T04:27:45;100215.34;;;9.82;100.00
32033;BME280;31720;52.638;9.216;2023-11-19T04:30:49;100227.03;;;9.77;100.00
32033;BME280;31720;52.638;9.216;2023-11-19T04:33:50;100232.66;;;9.85;100.00
32033;BME280;31720;52.638;9.216;2023-11-19T04:36:52;100230.63;;;9.90;100.00
32033;BME280;31720;52.638;9.216;2023-11-19T04:39:54;100221.63;;;9.94;100.00
32033;BME280;31720;52.638;9.216;2023-11-19T04:42:55;100215.19;;;10.00;100.00
32033;BME280;31720;52.638;9.216;2023-11-19T04:45:58;100216.22;;;9.97;100.00
32033;BME280;31720;52.638;9.216;2023-11-19T04:48:59;100215.38;;;9.97;100.00
32033;BME280;31720;52.638;9.216;2023-11-19T04:52:01;100198.41;;;10.02;100.00
32033;BME280;31720;52.638;9.216;2023-11-19T04:55:03;100191.56;;;10.00;100.00
32033;BME280;31720;52.638;9.216;2023-11-19T04:58:05;100186.59;;;9.95;100.00
32033;BME280;31720;52.638;9.216;2023-11-19T05:01:13;100186.22;;;10.01;100.00
32033;BME280;31720;52.638;9.216;2023-11-19T05:04:15;100184.81;;;10.10;100.00
32033;BME280;31720;52.638;9.216;2023-11-19T05:07:18;100183.22;;;10.07;100.00
32033;BME280;31720;52.638;9.216;2023-11-19T05:10:20;100166.81;;;10.04;100.00
32033;BME280;31720;52.638;9.216;2023-11-19T05:13:22;100160.97;;;9.99;100.00
32033;BME280;31720;52.638;9.216;2023-11-19T05:16:25;100179.34;;;9.99;100.00
32033;BME280;31720;52.638;9.216;2023-11-19T05:19:26;100177.13;;;10.07;100.00
32033;BME280;31720;52.638;9.216;2023-11-19T05:22:27;100165.59;;;10.24;100.00
32033;BME280;31720;52.638;9.216;2023-11-19T05:25:29;100176.22;;;10.22;100.00
32033;BME280;31720;52.638;9.216;2023-11-19T05:28:30;100179.31;;;10.29;100.00
32033;BME280;31720;52.638;9.216;2023-11-19T05:31:33;100181.78;;;10.32;100.00
32033;BME280;31720;52.638;9.216;2023-11-19T05:34:35;100176.53;;;10.32;100.00
32033;BME280;31720;52.638;9.216;2023-11-19T05:37:36;100171.44;;;10.29;100.00
32033;BME280;31720;52.638;9.216;2023-11-19T05:40:38;100176.25;;;10.36;100.00
32033;BME280;31720;52.638;9.216;2023-11-19T05:43:39;100175.75;;;10.44;100.00
32033;BME280;31720;52.638;9.216;2023-11-19T05:46:43;100173.13;;;10.44;100.00
32033;BME280;31720;52.638;9.216;2023-11-19T05:49:44;100171.53;;;10.41;100.00
32033;BME280;31720;52.638;9.216;2023-11-19T05:52:46;100171.44;;;10.43;100.00
32033;BME280;31720;52.638;9.216;2023-11-19T05:55:47;100173.88;;;10.46;100.00
32033;BME280;31720;52.638;9.216;2023-11-19T05:58:55;100182.44;;;10.50;100.00
32033;BME280;31720;52.638;9.216;2023-11-19T06:01:58;100188.69;;;10.47;100.00
32033;BME280;31720;52.638;9.216;2023-11-19T06:05:00;100197.41;;;10.48;100.00
32033;BME280;31720;52.638;9.216;2023-11-19T06:08:01;100195.34;;;10.53;100.00
32033;BME280;31720;52.638;9.216;2023-11-19T06:11:03;100200.53;;;10.54;100.00
32033;BME280;31720;52.638;9.216;2023-11-19T06:14:06;100196.41;;;10.50;100.00
32033;BME280;31720;52.638;9.216;2023-11-19T06:17:08;100206.63;;;10.55;100.00
32033;BME280;31720;52.638;9.216;2023-11-19T06:20:11;100204.28;;;10.50;100.00
32033;BME280;31720;52.638;9.216;2023-11-19T06:23:14;100215.44;;;10.54;100.00
32033;BME280;31720;52.638;9.216;2023-11-19T06:26:15;100212.53;;;10.58;100.00
32033;BME280;31720;52.638;9.216;2023-11-19T06:29:17;100213.44;;;10.57;100.00
32033;BME280;31720;52.638;9.216;2023-11-19T06:32:21;100207.84;;;10.49;100.00
32033;BME280;31720;52.638;9.216;2023-11-19T06:35:22;100210.56;;;10.48;100.00
32033;BME280;31720;52.638;9.216;2023-11-19T06:38:24;100220.31;;;10.46;100.00
32033;BME280;31720;52.638;9.216;2023-11-19T06:41:25;100214.31;;;10.44;100.00
32033;BME280;31720;52.638;9.216;2023-11-19T06:44:27;100227.53;;;10.42;100.00
32033;BME280;31720;52.638;9.216;2023-11-19T06:47:30;100219.28;;;10.48;100.00
32033;BME280;31720;52.638;9.216;2023-11-19T06:50:31;100228.22;;;10.46;100.00
32033;BME280;31720;52.638;9.216;2023-11-19T06:53:33;100234.41;;;10.45;100.00
32033;BME280;31720;52.638;9.216;2023-11-19T06:56:34;100223.63;;;10.49;100.00
32033;BME280;31720;52.638;9.216;2023-11-19T06:59:37;100231.78;;;10.45;100.00
32033;BME280;31720;52.638;9.216;2023-11-19T07:02:40;100221.06;;;10.48;100.00
32033;BME280;31720;52.638;9.216;2023-11-19T07:05:41;100217.59;;;10.47;100.00
32033;BME280;31720;52.638;9.216;2023-11-19T07:08:44;100218.66;;;10.45;100.00
32033;BME280;31720;52.638;9.216;2023-11-19T07:11:45;100229.34;;;10.41;100.00
32033;BME280;31720;52.638;9.216;2023-11-19T07:14:47;100224.53;;;10.48;100.00
32033;BME280;31720;52.638;9.216;2023-11-19T07:17:50;100228.75;;;10.51;100.00
32033;BME280;31720;52.638;9.216;2023-11-19T07:20:51;100231.00;;;10.57;100.00
32033;BME280;31720;52.638;9.216;2023-11-19T07:23:53;100235.81;;;10.64;100.00
32033;BME280;31720;52.638;9.216;2023-11-19T07:26:55;100234.84;;;10.65;100.00
32033;BME280;31720;52.638;9.216;2023-11-19T07:29:56;100239.72;;;10.72;100.00
32033;BME280;31720;52.638;9.216;2023-11-19T07:32:59;100245.75;;;10.74;100.00
32033;BME280;31720;52.638;9.216;2023-11-19T07:36:00;100250.88;;;10.75;100.00
32033;BME280;31720;52.638;9.216;2023-11-19T07:39:03;100249.22;;;10.74;100.00
32033;BME280;31720;52.638;9.216;2023-11-19T07:42:05;100252.78;;;10.73;100.00
32033;BME280;31720;52.638;9.216;2023-11-19T07:45:07;100266.66;;;10.75;100.00
32033;BME280;31720;52.638;9.216;2023-11-19T07:48:10;100259.81;;;10.73;100.00
32033;BME280;31720;52.638;9.216;2023-11-19T07:51:13;100262.16;;;10.77;100.00
32033;BME280;31720;52.638;9.216;2023-11-19T07:54:15;100263.00;;;10.78;100.00
32033;BME280;31720;52.638;9.216;2023-11-19T07:57:16;100272.88;;;10.74;100.00
32033;BME280;31720;52.638;9.216;2023-11-19T08:00:18;100267.59;;;10.74;100.00
32033;BME280;31720;52.638;9.216;2023-11-19T08:03:21;100270.13;;;10.76;100.00
32033;BME280;31720;52.638;9.216;2023-11-19T08:06:23;100274.75;;;10.72;100.00
32033;BME280;31720;52.638;9.216;2023-11-19T08:09:24;100277.38;;;10.72;100.00
32033;BME280;31720;52.638;9.216;2023-11-19T08:12:26;100278.56;;;10.81;100.00
32033;BME280;31720;52.638;9.216;2023-11-19T08:15:27;100277.72;;;10.80;100.00
32033;BME280;31720;52.638;9.216;2023-11-19T08:18:30;100284.03;;;10.78;100.00
32033;BME280;31720;52.638;9.216;2023-11-19T08:21:31;100280.66;;;10.76;100.00
32033;BME280;31720;52.638;9.216;2023-11-19T08:24:33;100278.69;;;10.79;100.00
32033;BME280;31720;52.638;9.216;2023-11-19T08:27:34;100281.19;;;10.81;100.00
32033;BME280;31720;52.638;9.216;2023-11-19T08:30:36;100296.13;;;10.80;100.00
32033;BME280;31720;52.638;9.216;2023-11-19T08:33:38;100277.66;;;10.82;100.00
32033;BME280;31720;52.638;9.216;2023-11-19T08:36:40;100277.72;;;10.80;100.00
32033;BME280;31720;52.638;9.216;2023-11-19T08:39:41;100295.28;;;10.80;100.00
32033;BME280;31720;52.638;9.216;2023-11-19T08:42:43;100302.88;;;10.84;100.00
32033;BME280;31720;52.638;9.216;2023-11-19T08:45:44;100295.50;;;10.91;100.00
32033;BME280;31720;52.638;9.216;2023-11-19T08:48:47;100298.13;;;10.91;100.00
32033;BME280;31720;52.638;9.216;2023-11-19T08:51:48;100307.59;;;10.93;100.00
32033;BME280;31720;52.638;9.216;2023-11-19T08:54:50;100307.03;;;10.88;100.00
32033;BME280;31720;52.638;9.216;2023-11-19T08:57:51;100314.91;;;10.88;100.00
32033;BME280;31720;52.638;9.216;2023-11-19T09:00:52;100316.13;;;10.83;100.00
32033;BME280;31720;52.638;9.216;2023-11-19T09:03:55;100316.97;;;10.69;100.00
32033;BME280;31720;52.638;9.216;2023-11-19T09:06:57;100318.28;;;10.62;100.00
32033;BME280;31720;52.638;9.216;2023-11-19T09:09:59;100332.19;;;10.64;100.00
32033;BME280;31720;52.638;9.216;2023-11-19T09:13:00;100326.72;;;10.67;100.00
32033;BME280;31720;52.638;9.216;2023-11-19T09:16:02;100323.81;;;10.72;100.00
32033;BME280;31720;52.638;9.216;2023-11-19T09:19:05;100330.78;;;10.73;100.00
32033;BME280;31720;52.638;9.216;2023-11-19T09:22:07;100321.13;;;10.73;100.00
32033;BME280;31720;52.638;9.216;2023-11-19T09:25:08;100320.34;;;10.71;100.00
32033;BME280;31720;52.638;9.216;2023-11-19T09:28:10;100335.19;;;10.72;100.00
32033;BME280;31720;52.638;9.216;2023-11-19T09:31:14;100322.13;;;10.85;100.00
32033;BME280;31720;52.638;9.216;2023-11-19T09:34:17;100325.91;;;10.95;100.00
32033;BME280;31720;52.638;9.216;2023-11-19T09:37:19;100334.91;;;11.05;100.00
32033;BME280;31720;52.638;9.216;2023-11-19T09:40:20;100340.63;;;11.12;100.00
32033;BME280;31720;52.638;9.216;2023-11-19T09:43:22;100350.59;;;11.07;100.00
32033;BME280;31720;52.638;9.216;2023-11-19T09:46:23;100345.25;;;11.08;100.00
32033;BME280;31720;52.638;9.216;2023-11-19T09:49:27;100339.88;;;11.10;100.00
32033;BME280;31720;52.638;9.216;2023-11-19T09:52:30;100342.34;;;11.13;100.00
32033;BME280;31720;52.638;9.216;2023-11-19T09:55:31;100342.78;;;11.20;100.00
32033;BME280;31720;52.638;9.216;2023-11-19T09:58:33;100339.69;;;11.27;100.00
32033;BME280;31720;52.638;9.216;2023-11-19T10:01:35;100336.28;;;11.25;100.00
32033;BME280;31720;52.638;9.216;2023-11-19T10:04:39;100340.72;;;11.25;100.00
32033;BME280;31720;52.638;9.216;2023-11-19T10:07:44;100336.00;;;11.30;100.00
32033;BME280;31720;52.638;9.216;2023-11-19T10:10:45;100342.22;;;11.29;100.00
32033;BME280;31720;52.638;9.216;2023-11-19T10:13:47;100324.91;;;11.39;100.00
32033;BME280;31720;52.638;9.216;2023-11-19T10:16:48;100335.34;;;11.40;100.00
32033;BME280;31720;52.638;9.216;2023-11-19T10:19:51;100329.78;;;11.45;100.00
32033;BME280;31720;52.638;9.216;2023-11-19T10:22:53;100341.88;;;11.48;100.00
32033;BME280;31720;52.638;9.216;2023-11-19T10:26:02;100332.50;;;11.43;100.00
32033;BME280;31720;52.638;9.216;2023-11-19T10:29:05;100336.91;;;11.43;100.00
32033;BME280;31720;52.638;9.216;2023-11-19T10:32:06;100328.00;;;11.46;100.00
32033;BME280;31720;52.638;9.216;2023-11-19T10:35:09;100328.00;;;11.46;100.00
32033;BME280;31720;52.638;9.216;2023-11-19T10:38:15;100335.38;;;11.53;100.00
32033;BME280;31720;52.638;9.216;2023-11-19T10:41:26;100321.78;;;11.47;100.00
32033;BME280;31720;52.638;9.216;2023-11-19T10:44:31;100328.72;;;11.48;100.00
32033;BME280;31720;52.638;9.216;2023-11-19T10:47:36;100333.81;;;11.51;100.00
32033;BME280;31720;52.638;9.216;2023-11-19T10:50:41;100323.81;;;11.56;100.00
32033;BME280;31720;52.638;9.216;2023-11-19T10:53:43;100329.94;;;11.56;100.00
32033;BME280;31720;52.638;9.216;2023-11-19T10:56:49;100319.09;;;11.61;100.00
32033;BME280;31720;52.638;9.216;2023-11-19T11:00:01;100330.59;;;11.60;100.00
32033;BME280;31720;52.638;9.216;2023-11-19T11:03:09;100324.06;;;11.65;100.00
32033;BME280;31720;52.638;9.216;2023-11-19T11:06:13;100316.38;;;11.62;100.00
32033;BME280;31720;52.638;9.216;2023-11-19T11:09:14;100321.03;;;11.72;100.00
32033;BME280;31720;52.638;9.216;2023-11-19T11:12:17;100332.09;;;11.64;100.00
32033;BME280;31720;52.638;9.216;2023-11-19T11:15:26;100329.19;;;11.54;100.00
32033;BME280;31720;52.638;9.216;2023-11-19T11:18:29;100330.22;;;11.52;100.00
32033;BME280;31720;52.638;9.216;2023-11-19T11:21:32;100324.31;;;11.48;100.00
32033;BME280;31720;52.638;9.216;2023-11-19T11:24:58;100316.63;;;11.45;100.00
32033;BME280;31720;52.638;9.216;2023-11-19T11:28:14;100320.19;;;11.44;100.00
32033;BME280;31720;52.638;9.216;2023-11-19T11:31:26;100313.59;;;11.51;100.00
32033;BME280;31720;52.638;9.216;2023-11-19T11:34:44;100317.44;;;11.60;100.00
32033;BME280;31720;52.638;9.216;2023-11-19T11:38:00;100328.09;;;11.71;100.00
32033;BME280;31720;52.638;9.216;2023-11-19T11:41:18;100322.91;;;11.84;100.00
32033;BME280;31720;52.638;9.216;2023-11-19T11:44:57;100321.88;;;11.86;100.00
32033;BME280;31720;52.638;9.216;2023-11-19T11:48:19;100319.25;;;11.86;100.00
32033;BME280;31720;52.638;9.216;2023-11-19T11:52:00;100322.22;;;11.95;100.00
32033;BME280;31720;52.638;9.216;2023-11-19T11:55:06;100323.03;;;11.82;100.00
32033;BME280;31720;52.638;9.216;2023-11-19T11:58:09;100324.03;;;11.80;100.00
32033;BME280;31720;52.638;9.216;2023-11-19T12:01:14;100319.28;;;11.72;100.00
32033;BME280;31720;52.638;9.216;2023-11-19T12:04:20;100321.91;;;11.72;100.00
32033;BME280;31720;52.638;9.216;2023-11-19T12:07:22;100323.13;;;11.66;100.00
32033;BME280;31720;52.638;9.216;2023-11-19T12:10:26;100316.28;;;11.64;100.00
32033;BME280;31720;52.638;9.216;2023-11-19T12:13:53;100309.44;;;11.61;100.00
32033;BME280;31720;52.638;9.216;2023-11-19T12:17:03;100318.63;;;11.68;100.00
32033;BME280;31720;52.638;9.216;2023-11-19T12:20:05;100319.81;;;11.77;100.00
32033;BME280;31720;52.638;9.216;2023-11-19T12:23:09;100311.88;;;11.91;100.00
32033;BME280;31720;52.638;9.216;2023-11-19T12:26:31;100313.56;;;11.92;100.00
32033;BME280;31720;52.638;9.216;2023-11-19T12:29:41;100328.81;;;11.87;100.00
32033;BME280;31720;52.638;9.216;2023-11-19T12:32:45;100319.34;;;11.85;100.00
32033;BME280;31720;52.638;9.216;2023-11-19T12:35:48;100311.81;;;11.79;100.00
32033;BME280;31720;52.638;9.216;2023-11-19T12:38:49;100315.69;;;11.73;100.00
32033;BME280;31720;52.638;9.216;2023-11-19T12:41:53;100324.06;;;11.65;100.00
32033;BME280;31720;52.638;9.216;2023-11-19T12:44:55;100313.50;;;11.53;100.00
32033;BME280;31720;52.638;9.216;2023-11-19T12:48:04;100328.38;;;11.39;100.00
32033;BME280;31720;52.638;9.216;2023-11-19T12:51:06;100317.28;;;11.34;100.00
32033;BME280;31720;52.638;9.216;2023-11-19T12:54:08;100313.16;;;11.30;100.00
32033;BME280;31720;52.638;9.216;2023-11-19T12:57:11;100314.31;;;11.26;100.00
32033;BME280;31720;52.638;9.216;2023-11-19T13:00:18;100309.00;;;11.13;100.00
32033;BME280;31720;52.638;9.216;2023-11-19T13:03:29;100311.25;;;11.05;100.00
32033;BME280;31720;52.638;9.216;2023-11-19T13:06:31;100314.47;;;10.82;100.00
32033;BME280;31720;52.638;9.216;2023-11-19T13:09:33;100320.28;;;10.73;100.00
32033;BME280;31720;52.638;9.216;2023-11-19T13:12:36;100306.19;;;10.59;100.00
32033;BME280;31720;52.638;9.216;2023-11-19T13:15:37;100285.16;;;10.59;100.00
32033;BME280;31720;52.638;9.216;2023-11-19T13:18:40;100284.41;;;10.57;100.00
32033;BME280;31720;52.638;9.216;2023-11-19T13:21:42;100292.28;;;10.57;100.00
32033;BME280;31720;52.638;9.216;2023-11-19T13:24:46;100290.50;;;10.58;100.00
32033;BME280;31720;52.638;9.216;2023-11-19T13:27:49;100286.84;;;10.60;100.00
32033;BME280;31720;52.638;9.216;2023-11-19T13:30:50;100281.59;;;10.60;100.00
32033;BME280;31720;52.638;9.216;2023-11-19T13:33:53;100286.75;;;10.62;100.00
32033;BME280;31720;52.638;9.216;2023-11-19T13:36:55;100276.16;;;10.63;100.00
32033;BME280;31720;52.638;9.216;2023-11-19T13:39:56;100280.56;;;10.63;100.00
32033;BME280;31720;52.638;9.216;2023-11-19T13:42:59;100278.88;;;10.62;100.00
32033;BME280;31720;52.638;9.216;2023-11-19T13:46:01;100279.69;;;10.62;100.00
32033;BME280;31720;52.638;9.216;2023-11-19T13:49:03;100280.66;;;10.61;100.00
32033;BME280;31720;52.638;9.216;2023-11-19T13:52:05;100277.00;;;10.64;100.00
32033;BME280;31720;52.638;9.216;2023-11-19T13:55:07;100277.56;;;10.69;100.00
32033;BME280;31720;52.638;9.216;2023-11-19T13:58:10;100279.13;;;10.72;100.00
32033;BME280;31720;52.638;9.216;2023-11-19T14:01:12;100285.81;;;10.77;100.00
32033;BME280;31720;52.638;9.216;2023-11-19T14:04:14;100282.44;;;10.75;100.00
32033;BME280;31720;52.638;9.216;2023-11-19T14:07:16;100302.22;;;10.81;100.00
32033;BME280;31720;52.638;9.216;2023-11-19T14:10:18;100288.53;;;10.76;100.00
32033;BME280;31720;52.638;9.216;2023-11-19T14:13:21;100289.59;;;10.59;100.00
32033;BME280;31720;52.638;9.216;2023-11-19T14:16:26;100295.75;;;10.58;100.00
32033;BME280;31720;52.638;9.216;2023-11-19T14:19:27;100314.22;;;10.42;100.00
32033;BME280;31720;52.638;9.216;2023-11-19T14:22:29;100318.06;;;10.36;100.00
32033;BME280;31720;52.638;9.216;2023-11-19T14:25:31;100328.47;;;10.38;100.00
32033;BME280;31720;52.638;9.216;2023-11-19T14:28:34;100313.06;;;10.02;100.00
32033;BME280;31720;52.638;9.216;2023-11-19T14:31:35;100318.38;;;9.70;100.00
32033;BME280;31720;52.638;9.216;2023-11-19T14:34:37;100309.34;;;9.60;100.00
32033;BME280;31720;52.638;9.216;2023-11-19T14:37:38;100301.72;;;9.55;100.00
32033;BME280;31720;52.638;9.216;2023-11-19T14:40:39;100322.47;;;9.60;100.00
32033;BME280;31720;52.638;9.216;2023-11-19T14:43:44;100318.72;;;9.48;100.00
32033;BME280;31720;52.638;9.216;2023-11-19T14:46:45;100314.69;;;9.43;100.00
32033;BME280;31720;52.638;9.216;2023-11-19T14:49:47;100309.28;;;9.46;100.00
32033;BME280;31720;52.638;9.216;2023-11-19T14:52:48;100307.75;;;9.42;100.00
32033;BME280;31720;52.638;9.216;2023-11-19T14:55:50;100304.59;;;9.35;100.00
32033;BME280;31720;52.638;9.216;2023-11-19T14:58:53;100312.41;;;9.36;100.00
32033;BME280;31720;52.638;9.216;2023-11-19T15:01:54;100305.53;;;9.34;100.00
32033;BME280;31720;52.638;9.216;2023-11-19T15:04:56;100299.94;;;9.40;100.00
32033;BME280;31720;52.638;9.216;2023-11-19T15:07:57;100295.56;;;9.40;100.00
32033;BME280;31720;52.638;9.216;2023-11-19T15:10:59;100294.53;;;9.43;100.00
32033;BME280;31720;52.638;9.216;2023-11-19T15:14:03;100301.88;;;9.52;100.00
32033;BME280;31720;52.638;9.216;2023-11-19T15:17:06;100291.56;;;9.49;100.00
32033;BME280;31720;52.638;9.216;2023-11-19T15:20:09;100293.44;;;9.47;100.00
32033;BME280;31720;52.638;9.216;2023-11-19T15:23:11;100296.81;;;9.49;100.00
32033;BME280;31720;52.638;9.216;2023-11-19T15:26:12;100289.63;;;9.53;100.00
32033;BME280;31720;52.638;9.216;2023-11-19T15:29:16;100286.84;;;9.56;100.00
32033;BME280;31720;52.638;9.216;2023-11-19T15:32:18;100291.34;;;9.54;100.00
32033;BME280;31720;52.638;9.216;2023-11-19T15:35:19;100291.13;;;9.57;100.00
32033;BME280;31720;52.638;9.216;2023-11-19T15:38:21;100294.44;;;9.60;100.00
32033;BME280;31720;52.638;9.216;2023-11-19T15:41:23;100284.63;;;9.64;100.00
32033;BME280;31720;52.638;9.216;2023-11-19T15:44:26;100285.38;;;9.66;100.00
32033;BME280;31720;52.638;9.216;2023-11-19T15:47:29;100287.72;;;9.71;100.00